Latest Weather Observations for Mandora

IDW60801

Issued at 8:05 am WST Friday 18 April 2014 (issued every 30 minutes, with the page automatically refreshed every 10 minutes)

About weather observations | Map of weather stations | Latest weather observations for WA | Other Formats
Station Details ID: 004019 Name: MANDORA Lat: -19.74 Lon: 120.84 Height: 7.5 m
Data from the previous 72 hours. | See also: Recent months at Mandora
Date/Time
WST
Temp
°C
App
Temp
°C
Dew
Point
Rel
Hum
%
Delta-T
°C
Wind Press
QNH
hPa
Press
MSL
hPa
Rain
since 9 am
mm
Dir
 
Spd
km/h
Gust
km/h
Spd
kts
Gust
kts
18/08:00am 27.3 - - - - ESE 20 28 11 15 1014.3 - 0.0
18/07:30am 24.1 - - - - ESE 15 22 8 12 1014.3 - 0.0
18/07:00am 21.5 - - - - SE 13 17 7 9 1014.1 - 0.0
18/06:30am 19.4 - - - - SE 11 13 6 7 1014.0 - 0.0
18/06:00am 19.2 - - - - SE 11 15 6 8 1013.8 1013.7 0.0
18/05:30am 19.3 - - - - SE 11 13 6 7 1013.7 - 0.0
18/05:00am 19.8 - - - - SE 11 15 6 8 1013.5 - 0.0
18/04:30am 19.6 - - - - SE 11 13 6 7 1013.1 - 0.0
18/04:00am 20.1 - - - - SE 11 15 6 8 1013.0 - 0.0
18/03:30am 19.7 - - - - SE 11 13 6 7 1013.0 - 0.0
18/03:00am 17.5 - - - - SE 9 13 5 7 1013.0 1012.9 0.0
18/02:30am 17.1 - - - - SSE 7 9 4 5 1013.0 - 0.0
18/02:00am 18.9 - - - - SE 9 11 5 6 1013.1 - 0.0
18/01:30am 18.5 - - - - SSE 9 11 5 6 1013.2 - 0.0
18/01:00am 20.2 - - - - S 9 11 5 6 1013.3 - 0.0
18/12:30am 21.1 - - - - S 9 11 5 6 1013.6 - 0.0
18/12:00am 21.7 - - - - SSE 11 15 6 8 1013.9 1013.8 0.0
 
Date/Time
WST
Temp
°C
App
Temp
°C
Dew
Point
Rel
Hum
%
Delta-T
°C
Wind Press
QNH
hPa
Press
MSL
hPa
Rain
since 9 am
mm
Dir
 
Spd
km/h
Gust
km/h
Spd
kts
Gust
kts
17/11:30pm 21.7 - - - - S 9 11 5 6 1014.0 - 0.0
17/11:00pm 22.4 - - - - S 9 13 5 7 1014.0 - 0.0
17/10:30pm 22.9 - - - - S 9 11 5 6 1013.9 - 0.0
17/10:00pm 22.6 - - - - SSW 11 11 6 6 1013.8 - 0.0
17/09:30pm 23.1 - - - - S 11 15 6 8 1013.8 - 0.0
17/09:00pm 22.9 - - - - S 11 13 6 7 1013.7 1013.6 0.0
17/08:30pm 23.0 - - - - S 9 11 5 6 1013.6 - 0.0
17/08:00pm 23.5 - - - - SSW 13 13 7 7 1013.4 - 0.0
17/07:30pm 24.5 - - - - SW 9 11 5 6 1013.1 - 0.0
17/07:00pm 24.2 - - - - WSW 9 11 5 6 1012.6 - 0.0
17/06:30pm 26.1 - - - - WSW 7 9 4 5 1012.2 - 0.0
17/06:00pm 27.7 - - - - WNW 7 9 4 5 1012.1 1012.0 0.0
17/05:30pm 31.0 - - - - WNW 9 11 5 6 1011.7 - 0.0
17/05:00pm 33.0 - - - - WNW 11 15 6 8 1011.3 - 0.0
17/04:30pm 33.7 - - - - NW 13 19 7 10 1011.1 - 0.0
17/04:00pm 34.4 - - - - NNW 13 19 7 10 1010.9 - 0.0
17/03:30pm 34.5 - - - - NNW 15 20 8 11 1010.7 - 0.0
17/03:00pm 34.6 - - - - N 17 26 9 14 1010.8 1010.7 0.0
17/02:30pm 35.7 - - - - N 17 28 9 15 1010.9 - 0.0
17/02:00pm 36.6 - - - - SE 15 26 8 14 1010.9 - 0.0
17/01:30pm 36.9 - - - - ESE 19 30 10 16 1011.4 - 0.0
17/01:00pm 36.4 - - - - ESE 17 35 9 19 1011.5 - 0.0
17/12:30pm 36.8 - - - - ESE 13 20 7 11 1012.0 - 0.0
17/12:00pm 36.2 - - - - E 15 28 8 15 1012.6 1012.5 0.0
17/11:30am 36.2 - - - - ENE 17 33 9 18 1013.3 - 0.0
17/11:00am 35.1 - - - - E 20 33 11 18 1013.8 - 0.0
17/10:30am 34.9 - - - - E 19 32 10 17 1014.2 - 0.0
17/10:00am 34.1 - - - - E 19 35 10 19 1014.5 - 0.0
17/09:30am 32.8 - - - - E 19 30 10 16 1014.7 - 0.0
17/09:00am 30.9 - - - - ESE 19 30 10 16 1014.7 1014.6 0.0
17/08:30am 29.4 - - - - E 17 28 9 15 1014.7 - 0.0
17/08:00am 27.0 - - - - ESE 17 28 9 15 1014.5 - 0.0
17/07:30am 23.8 - - - - ESE 15 22 8 12 1014.3 - 0.0
17/07:00am 21.2 - - - - SE 11 17 6 9 1014.1 - 0.0
17/06:30am 19.4 - - - - SE 13 17 7 9 1013.9 - 0.0
17/06:00am 18.9 - - - - SE 13 15 7 8 1013.6 1013.5 0.0
17/05:30am 19.5 - - - - SE 13 17 7 9 1013.4 - 0.0
17/05:00am 19.5 - - - - SE 13 17 7 9 1013.2 - 0.0
17/04:30am 19.5 - - - - SE 11 13 6 7 1012.9 - 0.0
17/04:00am 20.1 - - - - SE 11 15 6 8 1012.7 - 0.0
17/03:30am 20.3 - - - - SE 11 15 6 8 1012.5 - 0.0
17/03:00am 20.5 - - - - SE 11 15 6 8 1012.5 1012.4 0.0
17/02:30am 20.3 - - - - SE 11 13 6 7 1012.4 - 0.0
17/02:00am 20.4 - - - - SSE 11 13 6 7 1012.5 - 0.0
17/01:30am 20.5 - - - - SSE 9 13 5 7 1012.5 - 0.0
17/01:00am 20.5 - - - - SSE 9 13 5 7 1012.5 - 0.0
17/12:30am 21.1 - - - - SSE 9 13 5 7 1012.8 - 0.0
17/12:00am 22.2 - - - - SSE 13 17 7 9 1013.0 1012.9 0.0
 
Date/Time
WST
Temp
°C
App
Temp
°C
Dew
Point
Rel
Hum
%
Delta-T
°C
Wind Press
QNH
hPa
Press
MSL
hPa
Rain
since 9 am
mm
Dir
 
Spd
km/h
Gust
km/h
Spd
kts
Gust
kts
16/11:30pm 22.5 - - - - SSE 11 13 6 7 1013.0 - 0.0
16/11:00pm 22.7 - - - - SSE 11 13 6 7 1013.1 - 0.0
16/10:30pm 23.1 - - - - SSE 9 15 5 8 1013.2 - 0.0
16/10:00pm 23.4 - - - - SE 9 13 5 7 1013.2 - 0.0
16/09:30pm 24.1 - - - - SSE 11 15 6 8 1013.1 - 0.0
16/09:00pm 22.1 - - - - SSE 7 11 4 6 1013.0 1012.9 0.0
16/08:30pm 24.2 - - - - E 9 13 5 7 1012.7 - 0.0
16/08:00pm 23.9 - - - - SW 4 7 2 4 1012.5 - 0.0
16/07:30pm 24.1 - - - - SW 9 13 5 7 1012.2 - 0.0
16/07:00pm 24.3 - - - - SW 9 13 5 7 1011.9 - 0.0
16/06:30pm 25.9 - - - - CALM 0 0 0 0 1011.5 - 0.0
16/06:00pm 27.5 - - - - SW 6 9 3 5 1011.2 1011.1 0.0
16/05:30pm 30.0 - - - - WNW 9 13 5 7 1010.8 - 0.0
16/05:00pm 31.1 - - - - NW 13 22 7 12 1010.5 - 0.0
16/04:30pm 33.0 - - - - NNW 13 20 7 11 1010.4 - 0.0
16/04:00pm 35.5 - - - - E 15 52 8 28 1010.2 - 0.0
16/03:30pm 35.6 - - - - E 15 32 8 17 1010.2 - 0.0
16/03:00pm 36.1 - - - - E 15 26 8 14 1010.3 1010.2 0.0
16/02:30pm 35.8 - - - - E 15 28 8 15 1010.5 - 0.0
16/02:00pm 35.6 - - - - ENE 19 30 10 16 1010.6 - 0.0
16/01:30pm 35.7 - - - - ENE 20 30 11 16 1011.0 - 0.0
16/01:00pm 35.6 - - - - ESE 17 32 9 17 1011.3 - 0.0
16/12:30pm 35.2 - - - - ESE 19 35 10 19 1011.8 - 0.0
16/12:00pm 35.1 - - - - E 19 35 10 19 1012.5 1012.4 0.0
16/11:30am 34.7 - - - - ESE 20 32 11 17 1013.0 - 0.0
16/11:00am 34.0 - - - - ESE 20 35 11 19 1013.7 - 0.0
16/10:30am 33.6 - - - - E 20 30 11 16 1014.2 - 0.0
16/10:00am 33.5 - - - - E 20 35 11 19 1014.6 - 0.0
16/09:30am 32.0 - - - - E 22 35 12 19 1014.7 - 0.0
16/09:00am 30.5 - - - - ESE 26 35 14 19 1014.8 1014.7 0.0
16/08:30am 29.1 - - - - ESE 24 37 13 20 1014.7 - 0.0
16/08:00am 26.8 - - - - ESE 20 30 11 16 1014.8 - 0.0
16/07:30am 23.5 - - - - ESE 15 24 8 13 1014.7 - 0.0
16/07:00am 21.5 - - - - SE 15 20 8 11 1014.6 - 0.0
16/06:30am 19.9 - - - - SE 13 20 7 11 1014.3 - 0.0
16/06:00am 19.6 - - - - SE 13 19 7 10 1014.2 1014.1 0.0
16/05:30am 19.5 - - - - SE 13 17 7 9 1014.0 - 0.0
16/05:00am 20.2 - - - - SE 13 19 7 10 1013.8 - 0.0
16/04:30am 21.2 - - - - SE 15 20 8 11 1013.6 - 0.0
16/04:00am 21.7 - - - - SE 15 22 8 12 1013.4 - 0.0
16/03:30am 21.7 - - - - SE 13 20 7 11 1013.5 - 0.0
16/03:00am 21.3 - - - - SE 13 17 7 9 1013.5 1013.4 0.0
16/02:30am 21.4 - - - - SE 13 17 7 9 1013.6 - 0.0
16/02:00am 21.7 - - - - SE 11 15 6 8 1013.6 - 0.0
16/01:30am 20.5 - - - - SE 9 13 5 7 1013.8 - 0.0
16/01:00am 20.7 - - - - SSE 9 13 5 7 1014.0 - 0.0
16/12:30am 20.7 - - - - SSE 13 15 7 8 1014.0 - 0.0
16/12:00am 21.0 - - - - SSE 13 17 7 9 1014.0 1013.9 0.0
 
Date/Time
WST
Temp
°C
App
Temp
°C
Dew
Point
Rel
Hum
%
Delta-T
°C
Wind Press
QNH
hPa
Press
MSL
hPa
Rain
since 9 am
mm
Dir
 
Spd
km/h
Gust
km/h
Spd
kts
Gust
kts
15/11:30pm 21.3 - - - - S 13 20 7 11 1014.0 - 0.0
15/11:00pm 22.1 - - - - SSE 15 19 8 10 1014.1 - 0.0
15/10:30pm 22.5 - - - - S 13 19 7 10 1014.2 - 0.0
15/10:00pm 22.9 - - - - S 15 17 8 9 1014.3 - 0.0
15/09:30pm 23.0 - - - - S 13 17 7 9 1014.3 - 0.0
15/09:00pm 23.5 - - - - SSE 13 15 7 8 1014.0 1013.9 0.0
15/08:30pm 23.5 - - - - SSE 9 11 5 6 1014.0 - 0.0
15/08:00pm 23.8 - - - - SSE 9 11 5 6 1013.7 - 0.0
15/07:30pm 24.6 - - - - SSE 11 13 6 7 1013.2 - 0.0
15/07:00pm 25.7 - - - - SSE 9 13 5 7 1012.8 - 0.0
15/06:30pm 26.8 - - - - SE 9 11 5 6 1012.4 - 0.0
15/06:00pm 29.1 - - - - SE 9 11 5 6 1012.0 1011.9 0.0
15/05:30pm 31.9 - - - - SE 15 24 8 13 1011.7 - 0.0
15/05:00pm 33.3 - - - - SE 19 26 10 14 1011.3 - 0.0
15/04:30pm 34.1 - - - - SE 20 33 11 18 1011.1 - 0.0
15/04:00pm 34.4 - - - - SE 20 35 11 19 1010.9 - 0.0
15/03:30pm 35.0 - - - - ESE 20 35 11 19 1011.0 - 0.0
15/03:00pm 34.9 - - - - ESE 20 33 11 18 1011.1 1011.0 0.0
15/02:30pm 35.0 - - - - SE 24 39 13 21 1011.1 - 0.0
15/02:00pm 34.5 - - - - ESE 24 35 13 19 1011.2 - 0.0
15/01:30pm 35.1 - - - - SE 22 39 12 21 1011.5 - 0.0
15/01:00pm 34.6 - - - - SE 24 41 13 22 1011.9 - 0.0
15/12:30pm 34.0 - - - - SE 22 37 12 20 1012.4 - 0.0
15/12:00pm 33.8 - - - - SE 24 39 13 21 1013.0 1012.9 0.0
15/11:30am 33.4 - - - - E 22 41 12 22 1013.5 - 0.0
15/11:00am 32.6 - - - - ESE 22 35 12 19 1014.1 - 0.0
15/10:30am 32.3 - - - - ESE 26 43 14 23 1014.8 - 0.0
15/10:00am 31.9 - - - - ESE 24 37 13 20 1015.2 - 0.0
15/09:30am 31.2 - - - - ESE 26 39 14 21 1015.4 - 0.0
15/09:00am 30.2 - - - - E 20 32 11 17 1015.3 1015.2 0.0
15/08:30am 28.5 - - - - E 17 33 9 18 1015.3 - 0.0

Other Formats:

Comma delimited format used in spreadsheet applications
http://www.bom.gov.au/fwo/IDW60801/IDW60801.94200.axf

JavaScript Object Notation format (JSON) in row-major order
http://www.bom.gov.au/fwo/IDW60801/IDW60801.94200.json